createdAt,value
2018-07-19T00:02:10.797Z,72.40
2018-07-19T00:04:41.094Z,72.70
2018-07-19T00:07:11.426Z,72.80
2018-07-19T00:09:41.739Z,73.10
2018-07-19T00:12:12.100Z,73.50
2018-07-19T00:14:42.882Z,74.50
2018-07-19T00:17:13.197Z,73.80
2018-07-19T00:19:43.486Z,74.70
2018-07-19T00:22:13.813Z,74.60
2018-07-19T00:24:44.142Z,75.70
2018-07-19T00:27:14.477Z,76.00
2018-07-19T00:29:44.779Z,76.80
2018-07-19T00:32:15.109Z,76.00
2018-07-19T00:34:45.425Z,76.20
2018-07-19T00:37:16.137Z,75.90
2018-07-19T00:39:46.459Z,76.20
2018-07-19T00:42:16.813Z,76.30
2018-07-19T00:44:47.474Z,76.90
2018-07-19T00:47:17.801Z,76.60
2018-07-19T00:49:48.129Z,77.40
2018-07-19T00:52:18.454Z,77.80
2018-07-19T00:54:48.782Z,77.30
2018-07-19T00:57:19.090Z,78.00
2018-07-19T00:59:49.397Z,77.40
2018-07-19T01:02:20.058Z,77.10
2018-07-19T01:04:50.349Z,78.80
2018-07-19T01:07:20.681Z,78.00
2018-07-19T01:09:50.999Z,78.70
2018-07-19T01:12:21.757Z,79.00
2018-07-19T01:14:52.037Z,78.90
2018-07-19T01:17:22.391Z,79.20
2018-07-19T01:19:52.905Z,79.00
2018-07-19T01:22:23.252Z,78.80
2018-07-19T01:24:53.921Z,78.50
2018-07-19T01:27:24.249Z,79.40
2018-07-19T01:29:54.554Z,78.80
2018-07-19T01:32:25.225Z,79.50
2018-07-19T01:34:55.879Z,79.70
2018-07-19T01:37:26.187Z,79.40
2018-07-19T01:39:56.473Z,79.50
2018-07-19T01:42:38.893Z,80.30
2018-07-19T01:45:10.605Z,79.90
2018-07-19T01:47:41.269Z,78.80
2018-07-19T01:50:12.281Z,79.30
2018-07-19T01:52:42.598Z,79.20
2018-07-19T01:55:12.881Z,79.50
2018-07-19T01:57:43.201Z,80.10
2018-07-19T02:00:13.596Z,79.70
2018-07-19T02:02:43.826Z,80.60
2018-07-19T02:05:14.127Z,81.00
2018-07-19T02:07:44.793Z,80.90
2018-07-19T02:10:15.097Z,80.90
2018-07-19T02:12:45.899Z,81.10
2018-07-19T02:15:16.198Z,81.50
2018-07-19T02:17:46.568Z,81.30
2018-07-19T02:20:16.849Z,80.80
2018-07-19T02:22:47.224Z,80.90
2018-07-19T02:25:17.537Z,81.00
2018-07-19T02:27:47.857Z,80.60
2018-07-19T02:30:18.161Z,80.30
2018-07-19T02:32:48.482Z,80.40
2018-07-19T02:35:19.153Z,80.30
2018-07-19T02:37:49.441Z,80.40
2018-07-19T02:40:19.774Z,81.00
2018-07-19T02:42:50.065Z,80.60
2018-07-19T02:45:20.377Z,80.30
2018-07-19T02:47:50.662Z,81.00
2018-07-19T02:50:20.977Z,80.80
2018-07-19T02:52:51.265Z,80.50
2018-07-19T02:55:21.558Z,80.40
2018-07-19T02:57:51.869Z,81.10
2018-07-19T03:00:22.161Z,81.70
2018-07-19T03:02:52.274Z,81.90
2018-07-19T03:05:22.607Z,81.50
2018-07-19T03:07:52.899Z,81.50
2018-07-19T03:10:23.212Z,81.30
2018-07-19T03:12:53.886Z,82.30
2018-07-19T03:15:24.213Z,82.90
2018-07-19T03:17:54.513Z,81.90
2018-07-19T03:20:24.821Z,82.00
2018-07-19T03:22:55.145Z,82.00
2018-07-19T03:25:25.422Z,82.10
2018-07-19T03:27:55.733Z,82.20
2018-07-19T03:30:26.034Z,83.80
2018-07-19T03:32:56.367Z,82.40
2018-07-19T03:35:26.645Z,82.90
2018-07-19T03:37:56.966Z,82.80
2018-07-19T03:40:27.255Z,83.40
2018-07-19T03:42:57.592Z,83.60
2018-07-19T03:45:28.233Z,83.40
2018-07-19T03:47:58.559Z,83.30
2018-07-19T03:50:28.922Z,82.90
2018-07-19T03:52:59.223Z,82.60
2018-07-19T03:55:29.909Z,82.40
2018-07-19T03:58:00.213Z,82.40
2018-07-19T04:00:30.532Z,82.90
2018-07-19T04:03:00.866Z,82.90
2018-07-19T04:05:31.191Z,83.10
2018-07-19T04:08:01.498Z,82.80
2018-07-19T04:10:31.806Z,82.80
2018-07-19T04:13:02.197Z,83.20
2018-07-19T04:15:32.486Z,83.60
2018-07-19T04:18:02.843Z,82.70
2018-07-19T04:20:33.557Z,82.80
2018-07-19T04:23:03.886Z,82.70
2018-07-19T04:25:34.175Z,82.90
2018-07-19T04:28:04.493Z,83.00
2018-07-19T04:30:34.810Z,83.80
2018-07-19T04:33:05.194Z,82.60
2018-07-19T04:35:35.489Z,82.70
2018-07-19T04:38:06.354Z,82.50
2018-07-19T04:40:36.650Z,82.50
2018-07-19T04:43:06.969Z,82.80
2018-07-19T04:45:37.289Z,82.50
2018-07-19T04:48:07.618Z,83.30
2018-07-19T04:50:38.281Z,82.40
2018-07-19T04:53:08.650Z,82.20
2018-07-19T04:55:38.937Z,81.70
2018-07-19T04:58:09.234Z,82.00
2018-07-19T05:00:39.902Z,82.40
2018-07-19T05:03:10.537Z,82.20
2018-07-19T05:05:40.658Z,82.30
2018-07-19T05:08:10.952Z,83.20
2018-07-19T05:10:41.273Z,83.10
2018-07-19T05:13:11.601Z,82.90
2018-07-19T05:15:41.933Z,83.30
2018-07-19T05:18:12.225Z,82.90
2018-07-19T05:20:42.541Z,81.80
2018-07-19T05:23:12.945Z,81.80
2018-07-19T05:25:43.180Z,80.20
2018-07-19T05:28:13.473Z,80.50
2018-07-19T05:30:44.174Z,80.60
2018-07-19T05:33:14.526Z,80.80
2018-07-19T05:35:45.173Z,80.80
2018-07-19T05:38:15.566Z,81.20
2018-07-19T05:40:45.830Z,80.10
2018-07-19T05:43:16.181Z,79.70
2018-07-19T05:45:46.458Z,79.40
2018-07-19T05:48:16.776Z,79.50
2018-07-19T05:50:47.061Z,79.40
2018-07-19T05:53:17.546Z,79.10
2018-07-19T05:55:47.845Z,78.90
2018-07-19T05:58:18.256Z,78.60
2018-07-19T06:00:48.700Z,77.90
2018-07-19T06:03:19.261Z,77.90
2018-07-19T06:05:49.577Z,78.00
2018-07-19T06:08:19.957Z,77.70
2018-07-19T06:10:50.257Z,78.00
2018-07-19T06:13:20.620Z,77.20
2018-07-19T06:15:50.935Z,76.90
2018-07-19T06:18:21.225Z,76.40
2018-07-19T06:20:51.553Z,76.20
2018-07-19T06:23:21.938Z,75.50
2018-07-19T06:25:52.249Z,74.80
2018-07-19T06:28:22.579Z,74.70
2018-07-19T06:30:52.890Z,74.70
2018-07-19T06:33:23.206Z,74.00
2018-07-19T06:35:53.542Z,73.60
2018-07-19T06:38:23.886Z,73.00
2018-07-19T06:40:54.238Z,72.10
2018-07-19T06:43:24.565Z,70.10
2018-07-19T06:45:54.909Z,70.40
2018-07-19T06:48:25.570Z,68.30
2018-07-19T06:50:55.857Z,69.10
2018-07-19T06:53:26.181Z,70.60
2018-07-19T06:55:56.481Z,69.10
2018-07-19T06:58:26.803Z,68.60
2018-07-19T07:00:57.101Z,67.90
2018-07-19T07:03:27.519Z,67.80
2018-07-19T07:05:57.790Z,67.20
2018-07-19T07:08:28.121Z,67.40
2018-07-19T07:10:58.426Z,66.60
2018-07-19T07:13:28.789Z,67.30
2018-07-19T07:15:59.097Z,64.80
2018-07-19T07:18:29.437Z,63.50
2018-07-19T07:20:59.766Z,65.40
2018-07-19T07:23:30.086Z,63.60
2018-07-19T07:26:00.422Z,62.80
2018-07-19T07:28:30.721Z,64.00
2018-07-19T07:31:01.074Z,63.60
2018-07-19T07:33:31.374Z,63.70
2018-07-19T07:36:02.004Z,64.00
2018-07-19T07:38:32.442Z,63.90
2018-07-19T07:41:03.113Z,63.90
2018-07-19T07:43:33.418Z,62.00
2018-07-19T07:46:03.739Z,62.40
2018-07-19T07:48:34.046Z,62.50
2018-07-19T07:51:04.360Z,63.30
2018-07-19T07:53:35.034Z,61.80
2018-07-19T07:56:05.363Z,62.30
2018-07-19T07:58:35.702Z,60.80
2018-07-19T08:01:06.035Z,61.20
2018-07-19T08:03:36.627Z,61.60
2018-07-19T08:06:07.578Z,59.00
2018-07-19T08:08:37.933Z,57.70
2018-07-19T08:11:08.590Z,58.30
2018-07-19T08:13:38.933Z,57.40
2018-07-19T08:16:09.230Z,57.50
2018-07-19T08:18:39.276Z,58.00
2018-07-19T08:21:09.585Z,57.90
2018-07-19T08:23:39.911Z,58.10
2018-07-19T08:26:10.222Z,56.30
2018-07-19T08:28:40.253Z,56.00
2018-07-19T08:31:10.261Z,56.00
2018-07-19T08:33:40.680Z,54.00
2018-07-19T08:36:10.741Z,56.40
2018-07-19T08:38:40.774Z,54.70
2018-07-19T08:41:10.801Z,53.00
2018-07-19T08:43:40.835Z,52.40
2018-07-19T08:46:11.266Z,54.00
2018-07-19T08:48:41.453Z,54.30
2018-07-19T08:51:12.229Z,53.90
2018-07-19T08:53:42.245Z,52.50
2018-07-19T08:56:12.270Z,52.10
2018-07-19T08:58:42.650Z,51.50
2018-07-19T09:01:12.681Z,53.30
2018-07-19T09:03:42.718Z,50.40
2018-07-19T09:06:12.722Z,49.90
2018-07-19T09:08:42.779Z,50.00
2018-07-19T09:11:12.774Z,50.10
2018-07-19T09:13:42.845Z,51.90
2018-07-19T09:16:12.846Z,52.10
2018-07-19T09:21:19.555Z,52.90
2018-07-19T09:23:49.544Z,49.40
2018-07-19T09:26:19.934Z,48.70
2018-07-19T09:28:49.830Z,49.40
2018-07-19T09:31:19.793Z,51.00
2018-07-19T09:33:49.791Z,51.40
2018-07-19T09:36:19.830Z,49.90
2018-07-19T09:38:49.829Z,51.50
2018-07-19T09:41:19.847Z,49.80
2018-07-19T09:43:49.846Z,49.10
2018-07-19T09:46:20.225Z,49.80
2018-07-19T09:48:50.329Z,49.30
2018-07-19T09:51:20.313Z,47.50
2018-07-19T09:53:50.333Z,48.40
2018-07-19T09:56:21.044Z,49.80
2018-07-19T09:58:51.087Z,49.30
2018-07-19T10:01:21.754Z,46.30
2018-07-19T10:03:52.789Z,45.80
2018-07-19T10:06:23.501Z,45.90
2018-07-19T10:08:53.533Z,45.20
2018-07-19T10:11:23.564Z,45.60
2018-07-19T10:13:53.598Z,45.20
2018-07-19T10:16:23.585Z,42.50
2018-07-19T10:18:53.614Z,44.00
2018-07-19T10:21:23.653Z,45.00
2018-07-19T10:23:53.689Z,43.90
2018-07-19T10:26:23.714Z,46.30
2018-07-19T10:28:53.877Z,44.50
2018-07-19T10:31:23.913Z,42.30
2018-07-19T10:33:53.953Z,41.80
2018-07-19T10:36:24.042Z,41.50
2018-07-19T10:38:54.073Z,41.50
2018-07-19T10:41:24.222Z,41.50
2018-07-19T10:43:54.229Z,41.50
2018-07-19T10:46:24.282Z,41.40
2018-07-19T10:48:54.281Z,41.50
2018-07-19T10:51:24.317Z,41.00
2018-07-19T10:53:54.141Z,40.20
2018-07-19T10:56:23.953Z,39.70
2018-07-19T10:58:53.768Z,40.80
2018-07-19T11:01:23.578Z,39.20
2018-07-19T11:03:53.398Z,39.50
2018-07-19T11:06:23.406Z,41.20
2018-07-19T11:08:53.550Z,38.70
2018-07-19T11:11:23.391Z,41.20
2018-07-19T11:13:53.185Z,40.00
2018-07-19T11:16:23.024Z,39.50
2018-07-19T11:18:53.026Z,40.40
2018-07-19T11:21:22.853Z,37.60
2018-07-19T11:23:53.185Z,38.50
2018-07-19T11:26:23.018Z,35.70
2018-07-19T11:28:52.845Z,37.40
2018-07-19T11:31:22.683Z,37.50
2018-07-19T11:33:52.521Z,37.30
2018-07-19T11:36:22.693Z,36.50
2018-07-19T11:38:52.769Z,38.20
2018-07-19T11:41:22.674Z,35.50
2018-07-19T11:43:52.488Z,38.00
2018-07-19T11:46:22.310Z,38.00
2018-07-19T11:48:52.142Z,36.20
2018-07-19T11:51:22.309Z,36.40
2018-07-19T11:53:52.225Z,35.90
2018-07-19T11:56:22.061Z,36.30
2018-07-19T11:58:51.934Z,36.90
2018-07-19T12:01:21.758Z,36.50
2018-07-19T12:03:51.610Z,34.50
2018-07-19T12:06:21.437Z,35.40
2018-07-19T12:08:51.473Z,34.90
2018-07-19T12:11:21.346Z,33.60
2018-07-19T12:13:51.460Z,35.60
2018-07-19T12:16:21.646Z,34.10
2018-07-19T12:18:51.453Z,34.00
2018-07-19T12:21:21.311Z,34.50
2018-07-19T12:23:51.170Z,33.60
2018-07-19T12:26:20.994Z,33.80
2018-07-19T12:28:50.781Z,35.20
2018-07-19T12:31:20.605Z,36.90
2018-07-19T12:33:50.603Z,34.90
2018-07-19T12:36:20.466Z,34.10
2018-07-19T12:38:50.277Z,34.50
2018-07-19T12:41:20.130Z,33.30
2018-07-19T12:43:49.973Z,35.30
2018-07-19T12:46:19.804Z,34.10
2018-07-19T12:48:49.666Z,33.70
2018-07-19T12:51:19.665Z,34.90
2018-07-19T12:53:49.480Z,33.10
2018-07-19T12:56:19.650Z,32.90
2018-07-19T12:58:49.859Z,33.40
2018-07-19T13:01:19.649Z,33.40
2018-07-19T13:03:49.512Z,32.60
2018-07-19T13:06:19.338Z,33.50
2018-07-19T13:08:49.158Z,34.30
2018-07-19T13:11:19.037Z,34.50
2018-07-19T13:13:48.901Z,34.60
2018-07-19T13:16:19.610Z,34.30
2018-07-19T13:18:49.410Z,34.20
2018-07-19T13:21:19.433Z,35.00
2018-07-19T13:23:51.161Z,34.70
2018-07-19T13:26:21.953Z,34.00
2018-07-19T13:28:51.745Z,33.50
2018-07-19T13:31:22.102Z,32.00
2018-07-19T13:33:52.158Z,33.60
2018-07-19T13:36:22.385Z,34.70
2018-07-19T13:38:52.177Z,33.10
2018-07-19T13:41:22.034Z,34.10
2018-07-19T13:43:51.885Z,35.10
2018-07-19T13:46:22.070Z,33.60
2018-07-19T13:48:51.890Z,32.60
2018-07-19T13:51:21.709Z,33.40
2018-07-19T13:54:20.110Z,34.80
2018-07-19T13:56:49.991Z,33.40
2018-07-19T13:59:20.169Z,33.90
2018-07-19T14:01:49.971Z,34.90
2018-07-19T14:04:19.805Z,35.00
2018-07-19T14:06:49.609Z,35.50
2018-07-19T14:09:19.446Z,34.10
2018-07-19T14:11:49.442Z,34.00
2018-07-19T14:14:19.265Z,33.80
2018-07-19T14:16:49.081Z,32.90
2018-07-19T14:19:19.276Z,34.20
2018-07-19T14:21:49.249Z,34.90
2018-07-19T14:24:19.097Z,34.30
2018-07-19T14:26:48.935Z,36.30
2018-07-19T14:29:19.070Z,33.50
2018-07-19T14:31:48.898Z,34.80
2018-07-19T14:34:18.713Z,34.00
2018-07-19T14:36:48.550Z,33.90
2018-07-19T14:39:18.366Z,32.50
2018-07-19T14:41:48.526Z,34.60
2018-07-19T14:44:18.367Z,34.70
2018-07-19T14:46:48.161Z,33.10
2018-07-19T14:49:17.990Z,33.30
2018-07-19T14:51:47.785Z,33.10
2018-07-19T14:54:17.626Z,31.50
2018-07-19T14:56:47.413Z,32.00
2018-07-19T14:59:17.249Z,33.60
2018-07-19T15:01:47.546Z,33.50
2018-07-19T15:04:17.376Z,33.00
2018-07-19T15:06:47.522Z,32.30
2018-07-19T15:09:17.350Z,33.80
2018-07-19T15:11:47.149Z,34.10
2018-07-19T15:14:17.019Z,32.10
2018-07-19T15:16:46.837Z,32.90
2018-07-19T15:19:17.042Z,33.10
2018-07-19T15:21:46.854Z,33.10
2018-07-19T15:24:16.682Z,32.90
2018-07-19T15:26:46.509Z,32.70
2018-07-19T15:29:16.337Z,32.50
2018-07-19T15:31:46.369Z,33.80
2018-07-19T15:34:16.433Z,33.60
2018-07-19T15:36:46.415Z,33.50
2018-07-19T15:39:16.209Z,33.60
2018-07-19T15:41:46.086Z,33.90
2018-07-19T15:44:15.881Z,33.90
2018-07-19T15:46:45.701Z,33.10
2018-07-19T15:49:15.726Z,34.10
2018-07-19T15:51:45.984Z,31.80
2018-07-19T15:54:15.945Z,34.10
2018-07-19T15:56:45.959Z,32.80
2018-07-19T15:59:15.753Z,33.00
2018-07-19T16:01:45.569Z,33.60
2018-07-19T16:04:15.414Z,36.10
2018-07-19T16:06:45.234Z,33.00
2018-07-19T16:09:15.269Z,33.60
2018-07-19T16:11:45.422Z,33.90
2018-07-19T16:14:15.257Z,33.40
2018-07-19T16:16:45.058Z,33.90
2018-07-19T16:19:14.891Z,33.90
2018-07-19T16:21:44.686Z,33.10
2018-07-19T16:24:14.477Z,33.20
2018-07-19T16:26:44.306Z,32.10
2018-07-19T16:29:14.097Z,34.40
2018-07-19T16:31:43.926Z,34.40
2018-07-19T16:34:13.718Z,33.20
2018-07-19T16:36:43.549Z,34.50
2018-07-19T16:39:13.362Z,33.10
2018-07-19T16:41:43.383Z,34.10
2018-07-19T16:44:13.390Z,35.50
2018-07-19T16:46:43.253Z,34.90
2018-07-19T16:49:13.050Z,34.90
2018-07-19T16:51:42.869Z,35.10
2018-07-19T16:54:12.705Z,36.00
2018-07-19T16:56:42.574Z,36.70
2018-07-19T16:59:12.397Z,36.80
2018-07-19T17:01:42.234Z,36.80
2018-07-19T17:04:12.063Z,35.70
2018-07-19T17:06:41.890Z,36.60
2018-07-19T17:09:11.886Z,36.40
2018-07-19T17:11:41.887Z,35.80
2018-07-19T17:14:12.066Z,37.40
2018-07-19T17:16:41.870Z,37.00
2018-07-19T17:22:16.630Z,36.30
2018-07-19T17:24:46.533Z,36.00
2018-07-19T17:27:16.338Z,36.10
2018-07-19T17:29:46.153Z,35.90
2018-07-19T17:32:15.970Z,36.10
2018-07-19T17:34:46.150Z,35.80
2018-07-19T17:37:15.934Z,36.10
2018-07-19T17:39:45.861Z,35.80
2018-07-19T17:42:15.702Z,35.20
2018-07-19T17:44:45.489Z,35.50
2018-07-19T17:47:15.309Z,34.90
2018-07-19T17:49:45.150Z,35.40
2018-07-19T17:52:15.329Z,35.30
2018-07-19T17:54:45.125Z,35.50
2018-07-19T17:57:15.161Z,35.20
2018-07-19T17:59:45.033Z,35.70
2018-07-19T18:02:15.026Z,35.90
2018-07-19T18:04:44.841Z,35.60
2018-07-19T18:07:14.667Z,36.70
2018-07-19T18:09:44.490Z,35.80
2018-07-19T18:12:14.650Z,35.90
2018-07-19T18:14:45.322Z,34.80
2018-07-19T18:17:15.694Z,33.20
2018-07-19T18:22:16.893Z,34.10
2018-07-19T18:24:46.882Z,34.20
2018-07-19T18:27:17.135Z,35.10
2018-07-19T18:29:46.986Z,36.20
2018-07-19T18:32:17.509Z,37.20
2018-07-19T18:34:48.387Z,34.50
2018-07-19T18:37:18.665Z,34.10
2018-07-19T18:39:48.849Z,34.10
2018-07-19T18:42:18.663Z,34.70
2018-07-19T18:44:49.203Z,34.50
2018-07-19T18:47:19.879Z,34.30
2018-07-19T18:49:49.670Z,35.80
2018-07-19T18:52:20.509Z,37.60
2018-07-19T18:54:50.338Z,39.60
2018-07-19T18:57:20.161Z,40.30
2018-07-19T18:59:50.018Z,41.20
2018-07-19T19:02:19.872Z,41.10
2018-07-19T19:04:49.738Z,40.60
2018-07-19T19:07:20.201Z,41.80
2018-07-19T19:09:50.051Z,43.80
2018-07-19T19:12:20.326Z,42.50
2018-07-19T19:14:50.253Z,43.80
2018-07-19T19:17:20.114Z,44.30
2018-07-19T19:19:49.930Z,44.30
2018-07-19T19:22:19.809Z,45.60
2018-07-19T19:24:49.597Z,44.10
2018-07-19T19:27:19.537Z,44.90
2018-07-19T19:29:49.713Z,44.70
2018-07-19T19:32:19.595Z,44.80
2018-07-19T19:34:49.393Z,45.10
2018-07-19T19:37:19.230Z,45.30
2018-07-19T19:39:49.106Z,45.60
2018-07-19T19:42:19.024Z,45.70
2018-07-19T19:44:48.846Z,46.30
2018-07-19T19:47:18.686Z,46.30
2018-07-19T19:49:48.583Z,47.30
2018-07-19T19:52:18.365Z,49.00
2018-07-19T19:54:48.228Z,48.80
2018-07-19T19:57:18.115Z,47.90
2018-07-19T19:59:47.965Z,48.40
2018-07-19T20:02:18.109Z,50.10
2018-07-19T20:04:47.945Z,49.90
2018-07-19T20:07:17.826Z,49.70
2018-07-19T20:09:47.701Z,50.20
2018-07-19T20:12:17.635Z,50.40
2018-07-19T20:14:47.929Z,50.90
2018-07-19T20:17:17.798Z,52.00
2018-07-19T20:19:47.618Z,51.40
2018-07-19T20:22:17.902Z,52.20
2018-07-19T20:24:47.781Z,52.50
2018-07-19T20:27:17.606Z,53.00
2018-07-19T20:29:47.451Z,52.80
2018-07-19T20:32:17.273Z,53.40
2018-07-19T20:34:47.074Z,54.30
2018-07-19T20:37:16.946Z,53.90
2018-07-19T20:39:46.797Z,54.90
2018-07-19T20:42:16.619Z,55.40
2018-07-19T20:44:48.677Z,55.40
2018-07-19T20:47:18.473Z,55.90
2018-07-19T20:49:49.423Z,56.80
2018-07-19T20:52:19.230Z,57.90
2018-07-19T20:54:49.076Z,57.30
2018-07-19T20:57:19.473Z,57.10
2018-07-19T20:59:49.323Z,56.70
2018-07-19T21:02:19.357Z,57.00
2018-07-19T21:04:49.161Z,57.60
2018-07-19T21:07:19.080Z,57.80
2018-07-19T21:09:48.887Z,58.20
2018-07-19T21:12:18.730Z,58.50
2018-07-19T21:14:49.598Z,58.70
2018-07-19T21:17:19.402Z,58.40
2018-07-19T21:19:49.238Z,58.60
2018-07-19T21:22:19.033Z,58.60
2018-07-19T21:24:48.866Z,59.60
2018-07-19T21:27:18.701Z,59.30
2018-07-19T21:29:48.733Z,60.00
2018-07-19T21:32:18.569Z,60.10
2018-07-19T21:34:48.430Z,60.90
2018-07-19T21:37:18.510Z,60.40
2018-07-19T21:39:48.749Z,61.70
2018-07-19T21:42:19.418Z,61.70
2018-07-19T21:44:49.594Z,61.50
2018-07-19T21:47:20.409Z,62.50
2018-07-19T21:49:53.098Z,62.80
2018-07-19T21:52:25.845Z,64.40
2018-07-19T21:55:02.969Z,63.60
2018-07-19T21:57:35.815Z,63.20
2018-07-19T22:00:08.833Z,63.10
2018-07-19T22:02:43.874Z,61.90
2018-07-19T22:08:22.859Z,62.70
2018-07-19T22:10:56.076Z,63.40
2018-07-19T22:13:28.289Z,63.30
2018-07-19T22:16:00.310Z,63.60
2018-07-19T22:18:32.709Z,63.00
2018-07-19T22:21:03.078Z,63.60
2018-07-19T22:23:33.920Z,63.40
2018-07-19T22:26:04.365Z,64.20
2018-07-19T22:28:34.897Z,64.60
2018-07-19T22:31:05.203Z,65.40
2018-07-19T22:33:36.174Z,64.30
2018-07-19T22:36:06.320Z,64.40
2018-07-19T22:38:36.523Z,64.40
2018-07-19T22:41:07.477Z,64.00
2018-07-19T22:43:37.721Z,63.80
2018-07-19T22:46:07.922Z,63.60
2018-07-19T22:48:38.218Z,63.30
2018-07-19T22:51:08.788Z,63.50
2018-07-19T22:53:39.030Z,63.30
2018-07-19T22:56:09.230Z,63.50
2018-07-19T22:58:40.035Z,63.30
2018-07-19T23:01:10.208Z,63.10
2018-07-19T23:03:40.366Z,63.10
2018-07-19T23:06:10.562Z,63.20
2018-07-19T23:08:40.708Z,63.50
2018-07-19T23:11:10.871Z,63.00
2018-07-19T23:13:41.015Z,63.70
2018-07-19T23:16:11.366Z,63.50
2018-07-19T23:18:41.542Z,63.80
2018-07-19T23:21:11.742Z,63.80
2018-07-19T23:23:42.210Z,64.30
2018-07-19T23:26:12.346Z,63.90
2018-07-19T23:28:42.506Z,64.60
2018-07-19T23:31:12.666Z,64.90
2018-07-19T23:33:42.826Z,65.30
2018-07-19T23:36:16.467Z,65.10
2018-07-19T23:38:54.470Z,66.10
2018-07-19T23:41:29.002Z,65.30
2018-07-19T23:44:02.998Z,65.60
2018-07-19T23:46:41.051Z,65.90
2018-07-19T23:49:11.190Z,65.50
2018-07-19T23:51:41.315Z,66.40
2018-07-19T23:54:11.450Z,66.90
2018-07-19T23:56:41.583Z,66.30
2018-07-19T23:59:11.758Z,66.00
